KLBE/LBE METAR and TAF weather

Enter ICAO airport designator
Station Type Date Time Source
KLBE METAR 2024/04/17 18:50 UTC NOAA

KLBE 171850Z 20016KT 6SM -RA FEW030 BKN070 24/13 A2988


Station Type Date Time Source
KLBE Decoded METAR 2024/04/17 18:50 UTC NOAA

Latrobe / Westmorland, PA, United States (KLBE) 40-17N 079-24W
Apr 17, 2024 - 02:50 PM EDT / 2024.04.17 1850 UTC
Wind: from the SSW (200 degrees) at 18 MPH (16 KT):0
Visibility: 6 mile(s):0
Sky conditions: mostly cloudy
Weather: light rain
Temperature: 75 F (24 C)
Dew Point: 55 F (13 C)
Relative Humidity: 50%
Pressure (altimeter): 29.88 in. Hg (1011 hPa)
ob: KLBE 171850Z 20016KT 6SM -RA FEW030 BKN070 24/13 A2988
cycle: 19

Station Type Date Time Source
KLBE TAF 2024/04/17 18:40 UTC NOAA